sensor_id;sensor_type;location;lat;lon;timestamp;temperature;humidity
10433;DHT22;5263;48.680;9.004;2023-06-22T00:00:51;19.80;99.90
10433;DHT22;5263;48.680;9.004;2023-06-22T00:03:18;19.70;99.90
10433;DHT22;5263;48.680;9.004;2023-06-22T00:05:44;19.80;99.90
10433;DHT22;5263;48.680;9.004;2023-06-22T00:08:10;19.90;99.90
10433;DHT22;5263;48.680;9.004;2023-06-22T00:10:35;19.80;99.90
10433;DHT22;5263;48.680;9.004;2023-06-22T00:13:01;19.70;99.90
10433;DHT22;5263;48.680;9.004;2023-06-22T00:15:27;19.90;99.90
10433;DHT22;5263;48.680;9.004;2023-06-22T00:17:52;19.80;99.90
10433;DHT22;5263;48.680;9.004;2023-06-22T00:20:18;19.70;99.90
10433;DHT22;5263;48.680;9.004;2023-06-22T00:22:44;19.60;99.90
10433;DHT22;5263;48.680;9.004;2023-06-22T00:25:10;19.60;99.90
10433;DHT22;5263;48.680;9.004;2023-06-22T00:27:36;19.60;99.90
10433;DHT22;5263;48.680;9.004;2023-06-22T00:30:03;19.60;99.90
10433;DHT22;5263;48.680;9.004;2023-06-22T00:32:28;19.50;99.90
10433;DHT22;5263;48.680;9.004;2023-06-22T00:34:54;19.60;99.90
10433;DHT22;5263;48.680;9.004;2023-06-22T00:37:20;19.50;99.90
10433;DHT22;5263;48.680;9.004;2023-06-22T00:39:51;19.40;99.90
10433;DHT22;5263;48.680;9.004;2023-06-22T00:42:17;19.40;99.90
10433;DHT22;5263;48.680;9.004;2023-06-22T00:44:43;19.40;99.90
10433;DHT22;5263;48.680;9.004;2023-06-22T00:47:10;19.30;99.90
10433;DHT22;5263;48.680;9.004;2023-06-22T00:49:38;19.60;99.90
10433;DHT22;5263;48.680;9.004;2023-06-22T00:52:07;19.60;99.90
10433;DHT22;5263;48.680;9.004;2023-06-22T00:54:41;19.60;99.90
10433;DHT22;5263;48.680;9.004;2023-06-22T00:57:14;19.40;99.90
10433;DHT22;5263;48.680;9.004;2023-06-22T00:59:43;19.80;99.90
10433;DHT22;5263;48.680;9.004;2023-06-22T01:02:09;19.90;99.90
10433;DHT22;5263;48.680;9.004;2023-06-22T01:04:36;19.60;99.90
10433;DHT22;5263;48.680;9.004;2023-06-22T01:09:33;19.60;99.90
10433;DHT22;5263;48.680;9.004;2023-06-22T01:12:03;19.80;99.90
10433;DHT22;5263;48.680;9.004;2023-06-22T01:14:36;19.60;99.90
10433;DHT22;5263;48.680;9.004;2023-06-22T01:17:05;19.40;99.90
10433;DHT22;5263;48.680;9.004;2023-06-22T01:19:49;19.30;99.90
10433;DHT22;5263;48.680;9.004;2023-06-22T01:22:18;19.10;99.90
10433;DHT22;5263;48.680;9.004;2023-06-22T01:25:19;19.10;99.90
10433;DHT22;5263;48.680;9.004;2023-06-22T01:30:26;18.90;99.90
10433;DHT22;5263;48.680;9.004;2023-06-22T01:32:54;19.00;99.90
10433;DHT22;5263;48.680;9.004;2023-06-22T01:35:21;19.10;99.90
10433;DHT22;5263;48.680;9.004;2023-06-22T01:37:47;19.20;99.90
10433;DHT22;5263;48.680;9.004;2023-06-22T01:40:13;19.00;99.90
10433;DHT22;5263;48.680;9.004;2023-06-22T01:42:40;18.80;99.90
10433;DHT22;5263;48.680;9.004;2023-06-22T01:45:07;18.70;99.90
10433;DHT22;5263;48.680;9.004;2023-06-22T01:47:34;18.70;99.90
10433;DHT22;5263;48.680;9.004;2023-06-22T01:49:59;18.70;99.90
10433;DHT22;5263;48.680;9.004;2023-06-22T01:52:25;19.00;99.90
10433;DHT22;5263;48.680;9.004;2023-06-22T01:54:51;18.90;99.90
10433;DHT22;5263;48.680;9.004;2023-06-22T01:57:17;18.80;99.90
10433;DHT22;5263;48.680;9.004;2023-06-22T02:02:22;18.70;99.90
10433;DHT22;5263;48.680;9.004;2023-06-22T02:05:07;18.80;99.90
10433;DHT22;5263;48.680;9.004;2023-06-22T02:07:49;18.90;99.90
10433;DHT22;5263;48.680;9.004;2023-06-22T02:10:19;18.80;99.90
10433;DHT22;5263;48.680;9.004;2023-06-22T02:12:45;18.70;99.90
10433;DHT22;5263;48.680;9.004;2023-06-22T02:15:11;19.00;99.90
10433;DHT22;5263;48.680;9.004;2023-06-22T02:17:40;19.30;99.90
10433;DHT22;5263;48.680;9.004;2023-06-22T02:20:12;19.30;99.90
10433;DHT22;5263;48.680;9.004;2023-06-22T02:22:38;19.20;99.90
10433;DHT22;5263;48.680;9.004;2023-06-22T02:25:04;18.90;99.90
10433;DHT22;5263;48.680;9.004;2023-06-22T02:27:30;18.70;99.90
10433;DHT22;5263;48.680;9.004;2023-06-22T02:29:56;18.50;99.90
10433;DHT22;5263;48.680;9.004;2023-06-22T02:32:22;18.40;99.90
10433;DHT22;5263;48.680;9.004;2023-06-22T02:34:48;18.30;99.90
10433;DHT22;5263;48.680;9.004;2023-06-22T02:37:16;18.20;99.90
10433;DHT22;5263;48.680;9.004;2023-06-22T02:39:42;18.20;99.90
10433;DHT22;5263;48.680;9.004;2023-06-22T02:42:08;18.10;99.90
10433;DHT22;5263;48.680;9.004;2023-06-22T02:44:36;18.20;99.90
10433;DHT22;5263;48.680;9.004;2023-06-22T02:47:02;18.20;99.90
10433;DHT22;5263;48.680;9.004;2023-06-22T02:49:27;18.30;99.90
10433;DHT22;5263;48.680;9.004;2023-06-22T02:51:53;18.30;99.90
10433;DHT22;5263;48.680;9.004;2023-06-22T02:54:19;18.20;99.90
10433;DHT22;5263;48.680;9.004;2023-06-22T02:56:44;18.20;99.90
10433;DHT22;5263;48.680;9.004;2023-06-22T02:59:10;18.10;99.90
10433;DHT22;5263;48.680;9.004;2023-06-22T03:01:37;18.10;99.90
10433;DHT22;5263;48.680;9.004;2023-06-22T03:04:06;18.30;99.90
10433;DHT22;5263;48.680;9.004;2023-06-22T03:06:33;18.50;99.90
10433;DHT22;5263;48.680;9.004;2023-06-22T03:09:03;18.50;99.90
10433;DHT22;5263;48.680;9.004;2023-06-22T03:11:33;18.50;99.90
10433;DHT22;5263;48.680;9.004;2023-06-22T03:14:00;18.20;99.90
10433;DHT22;5263;48.680;9.004;2023-06-22T03:16:26;17.90;99.90
10433;DHT22;5263;48.680;9.004;2023-06-22T03:18:52;17.70;99.90
10433;DHT22;5263;48.680;9.004;2023-06-22T03:21:19;17.80;99.90
10433;DHT22;5263;48.680;9.004;2023-06-22T03:23:45;18.00;99.90
10433;DHT22;5263;48.680;9.004;2023-06-22T03:26:10;17.70;99.90
10433;DHT22;5263;48.680;9.004;2023-06-22T03:28:37;17.50;99.90
10433;DHT22;5263;48.680;9.004;2023-06-22T03:31:03;17.40;99.90
10433;DHT22;5263;48.680;9.004;2023-06-22T03:33:29;17.30;99.90
10433;DHT22;5263;48.680;9.004;2023-06-22T03:35:55;17.40;99.90
10433;DHT22;5263;48.680;9.004;2023-06-22T03:38:21;17.60;99.90
10433;DHT22;5263;48.680;9.004;2023-06-22T03:40:46;17.90;99.90
10433;DHT22;5263;48.680;9.004;2023-06-22T03:43:12;18.00;99.90
10433;DHT22;5263;48.680;9.004;2023-06-22T03:45:37;17.70;99.90
10433;DHT22;5263;48.680;9.004;2023-06-22T03:48:03;17.60;99.90
10433;DHT22;5263;48.680;9.004;2023-06-22T03:50:29;17.50;99.90
10433;DHT22;5263;48.680;9.004;2023-06-22T03:52:55;17.40;99.90
10433;DHT22;5263;48.680;9.004;2023-06-22T03:55:21;17.60;99.90
10433;DHT22;5263;48.680;9.004;2023-06-22T03:57:46;17.80;99.90
10433;DHT22;5263;48.680;9.004;2023-06-22T04:00:13;17.50;99.90
10433;DHT22;5263;48.680;9.004;2023-06-22T04:02:38;17.40;99.90
10433;DHT22;5263;48.680;9.004;2023-06-22T04:05:04;17.40;99.90
10433;DHT22;5263;48.680;9.004;2023-06-22T04:07:30;17.30;99.90
10433;DHT22;5263;48.680;9.004;2023-06-22T04:09:56;17.50;99.90
10433;DHT22;5263;48.680;9.004;2023-06-22T04:12:21;17.50;99.90
10433;DHT22;5263;48.680;9.004;2023-06-22T04:14:47;17.50;99.90
10433;DHT22;5263;48.680;9.004;2023-06-22T04:17:12;17.50;99.90
10433;DHT22;5263;48.680;9.004;2023-06-22T04:19:40;17.80;99.90
10433;DHT22;5263;48.680;9.004;2023-06-22T04:22:06;17.90;99.90
10433;DHT22;5263;48.680;9.004;2023-06-22T04:24:35;17.80;99.90
10433;DHT22;5263;48.680;9.004;2023-06-22T04:27:01;17.80;99.90
10433;DHT22;5263;48.680;9.004;2023-06-22T04:29:29;17.70;99.90
10433;DHT22;5263;48.680;9.004;2023-06-22T04:31:58;17.70;99.90
10433;DHT22;5263;48.680;9.004;2023-06-22T04:34:28;17.90;99.90
10433;DHT22;5263;48.680;9.004;2023-06-22T04:36:54;17.90;99.90
10433;DHT22;5263;48.680;9.004;2023-06-22T04:39:20;18.00;99.90
10433;DHT22;5263;48.680;9.004;2023-06-22T04:41:46;18.30;99.90
10433;DHT22;5263;48.680;9.004;2023-06-22T04:44:15;18.40;99.90
10433;DHT22;5263;48.680;9.004;2023-06-22T04:46:52;18.70;99.90
10433;DHT22;5263;48.680;9.004;2023-06-22T04:49:25;18.90;99.90
10433;DHT22;5263;48.680;9.004;2023-06-22T04:51:58;18.80;99.90
10433;DHT22;5263;48.680;9.004;2023-06-22T04:54:23;18.70;99.90
10433;DHT22;5263;48.680;9.004;2023-06-22T04:56:49;18.70;99.90
10433;DHT22;5263;48.680;9.004;2023-06-22T04:59:26;18.80;99.90
10433;DHT22;5263;48.680;9.004;2023-06-22T05:01:57;19.00;99.90
10433;DHT22;5263;48.680;9.004;2023-06-22T05:04:24;19.10;99.90
10433;DHT22;5263;48.680;9.004;2023-06-22T05:06:50;19.20;99.90
10433;DHT22;5263;48.680;9.004;2023-06-22T05:09:16;19.40;99.90
10433;DHT22;5263;48.680;9.004;2023-06-22T05:11:45;19.40;99.90
10433;DHT22;5263;48.680;9.004;2023-06-22T05:14:11;19.50;99.90
10433;DHT22;5263;48.680;9.004;2023-06-22T05:16:38;19.60;99.90
10433;DHT22;5263;48.680;9.004;2023-06-22T05:19:04;19.80;99.90
10433;DHT22;5263;48.680;9.004;2023-06-22T05:21:30;20.00;99.90
10433;DHT22;5263;48.680;9.004;2023-06-22T05:23:57;20.20;99.90
10433;DHT22;5263;48.680;9.004;2023-06-22T05:26:28;20.40;99.90
10433;DHT22;5263;48.680;9.004;2023-06-22T05:28:53;20.40;99.90
10433;DHT22;5263;48.680;9.004;2023-06-22T05:31:20;20.60;99.90
10433;DHT22;5263;48.680;9.004;2023-06-22T05:33:46;20.70;99.90
10433;DHT22;5263;48.680;9.004;2023-06-22T05:36:12;20.80;99.90
10433;DHT22;5263;48.680;9.004;2023-06-22T05:38:39;20.90;99.90
10433;DHT22;5263;48.680;9.004;2023-06-22T05:41:05;20.80;99.90
10433;DHT22;5263;48.680;9.004;2023-06-22T05:43:31;20.80;99.90
10433;DHT22;5263;48.680;9.004;2023-06-22T05:45:57;20.90;99.90
10433;DHT22;5263;48.680;9.004;2023-06-22T05:48:22;20.90;99.90
10433;DHT22;5263;48.680;9.004;2023-06-22T05:50:48;20.90;99.90
10433;DHT22;5263;48.680;9.004;2023-06-22T05:53:14;20.90;99.90
10433;DHT22;5263;48.680;9.004;2023-06-22T05:55:40;20.80;99.90
10433;DHT22;5263;48.680;9.004;2023-06-22T05:58:06;20.80;99.90
10433;DHT22;5263;48.680;9.004;2023-06-22T06:00:32;20.90;99.90
10433;DHT22;5263;48.680;9.004;2023-06-22T06:02:57;20.90;99.90
10433;DHT22;5263;48.680;9.004;2023-06-22T06:05:32;20.90;99.90
10433;DHT22;5263;48.680;9.004;2023-06-22T06:07:59;20.90;99.90
10433;DHT22;5263;48.680;9.004;2023-06-22T06:10:26;21.00;99.90
10433;DHT22;5263;48.680;9.004;2023-06-22T06:12:52;21.00;99.90
10433;DHT22;5263;48.680;9.004;2023-06-22T06:15:17;21.10;99.90
10433;DHT22;5263;48.680;9.004;2023-06-22T06:17:50;21.20;99.90
10433;DHT22;5263;48.680;9.004;2023-06-22T06:20:24;21.20;99.90
10433;DHT22;5263;48.680;9.004;2023-06-22T06:22:50;21.40;99.90
10433;DHT22;5263;48.680;9.004;2023-06-22T06:25:16;21.50;99.90
10433;DHT22;5263;48.680;9.004;2023-06-22T06:27:50;21.80;99.90
10433;DHT22;5263;48.680;9.004;2023-06-22T06:30:18;21.90;99.90
10433;DHT22;5263;48.680;9.004;2023-06-22T06:32:45;22.10;99.90
10433;DHT22;5263;48.680;9.004;2023-06-22T06:35:13;22.20;99.90
10433;DHT22;5263;48.680;9.004;2023-06-22T06:37:41;22.40;99.90
10433;DHT22;5263;48.680;9.004;2023-06-22T06:40:07;22.40;99.90
10433;DHT22;5263;48.680;9.004;2023-06-22T06:42:39;22.30;99.90
10433;DHT22;5263;48.680;9.004;2023-06-22T06:45:08;22.50;99.90
10433;DHT22;5263;48.680;9.004;2023-06-22T06:47:33;22.80;99.90
10433;DHT22;5263;48.680;9.004;2023-06-22T06:49:59;23.00;99.90
10433;DHT22;5263;48.680;9.004;2023-06-22T06:52:25;23.10;99.90
10433;DHT22;5263;48.680;9.004;2023-06-22T06:54:51;23.10;99.90
10433;DHT22;5263;48.680;9.004;2023-06-22T06:57:18;22.90;99.90
10433;DHT22;5263;48.680;9.004;2023-06-22T06:59:43;23.00;99.90
10433;DHT22;5263;48.680;9.004;2023-06-22T07:02:09;23.30;99.90
10433;DHT22;5263;48.680;9.004;2023-06-22T07:04:35;23.50;99.90
10433;DHT22;5263;48.680;9.004;2023-06-22T07:07:02;23.60;99.90
10433;DHT22;5263;48.680;9.004;2023-06-22T07:09:28;23.60;99.90
10433;DHT22;5263;48.680;9.004;2023-06-22T07:11:54;23.70;99.90
10433;DHT22;5263;48.680;9.004;2023-06-22T07:14:19;23.90;99.90
10433;DHT22;5263;48.680;9.004;2023-06-22T07:16:45;24.00;99.90
10433;DHT22;5263;48.680;9.004;2023-06-22T07:19:13;24.10;99.90
10433;DHT22;5263;48.680;9.004;2023-06-22T07:21:39;24.00;99.90
10433;DHT22;5263;48.680;9.004;2023-06-22T07:24:05;23.80;99.90
10433;DHT22;5263;48.680;9.004;2023-06-22T07:26:31;24.00;99.90
10433;DHT22;5263;48.680;9.004;2023-06-22T07:28:57;24.10;99.90
10433;DHT22;5263;48.680;9.004;2023-06-22T07:31:26;24.10;99.90
10433;DHT22;5263;48.680;9.004;2023-06-22T07:33:52;24.30;99.90
10433;DHT22;5263;48.680;9.004;2023-06-22T07:36:18;24.20;99.90
10433;DHT22;5263;48.680;9.004;2023-06-22T07:38:44;24.20;99.90
10433;DHT22;5263;48.680;9.004;2023-06-22T07:41:09;24.20;99.90
10433;DHT22;5263;48.680;9.004;2023-06-22T07:43:35;24.30;99.90
10433;DHT22;5263;48.680;9.004;2023-06-22T07:46:05;24.60;99.90
10433;DHT22;5263;48.680;9.004;2023-06-22T07:48:31;24.70;99.90
10433;DHT22;5263;48.680;9.004;2023-06-22T07:50:57;24.60;99.90
10433;DHT22;5263;48.680;9.004;2023-06-22T07:53:23;24.80;99.90
10433;DHT22;5263;48.680;9.004;2023-06-22T07:55:49;25.10;99.90
10433;DHT22;5263;48.680;9.004;2023-06-22T07:58:15;25.40;99.90
10433;DHT22;5263;48.680;9.004;2023-06-22T08:00:41;25.50;99.90
10433;DHT22;5263;48.680;9.004;2023-06-22T08:03:07;25.50;99.90
10433;DHT22;5263;48.680;9.004;2023-06-22T08:05:32;25.70;99.90
10433;DHT22;5263;48.680;9.004;2023-06-22T08:07:58;25.90;99.90
10433;DHT22;5263;48.680;9.004;2023-06-22T08:10:24;26.20;99.90
10433;DHT22;5263;48.680;9.004;2023-06-22T08:12:51;26.70;99.90
10433;DHT22;5263;48.680;9.004;2023-06-22T08:15:17;26.70;99.90
10433;DHT22;5263;48.680;9.004;2023-06-22T08:17:44;26.70;99.90
10433;DHT22;5263;48.680;9.004;2023-06-22T08:20:11;26.60;99.90
10433;DHT22;5263;48.680;9.004;2023-06-22T08:22:40;26.90;99.90
10433;DHT22;5263;48.680;9.004;2023-06-22T08:25:07;27.00;99.90
10433;DHT22;5263;48.680;9.004;2023-06-22T08:27:33;26.80;99.90
10433;DHT22;5263;48.680;9.004;2023-06-22T08:29:59;27.00;99.90
10433;DHT22;5263;48.680;9.004;2023-06-22T08:32:29;26.80;99.90
10433;DHT22;5263;48.680;9.004;2023-06-22T08:34:55;26.80;99.90
10433;DHT22;5263;48.680;9.004;2023-06-22T08:37:21;26.80;99.90
10433;DHT22;5263;48.680;9.004;2023-06-22T08:39:49;27.00;99.90
10433;DHT22;5263;48.680;9.004;2023-06-22T08:42:15;27.10;99.90
10433;DHT22;5263;48.680;9.004;2023-06-22T08:44:40;27.40;99.90
10433;DHT22;5263;48.680;9.004;2023-06-22T08:47:06;27.80;99.90
10433;DHT22;5263;48.680;9.004;2023-06-22T08:49:32;27.90;99.90
10433;DHT22;5263;48.680;9.004;2023-06-22T08:51:57;27.80;99.90
10433;DHT22;5263;48.680;9.004;2023-06-22T08:54:23;27.70;99.90
10433;DHT22;5263;48.680;9.004;2023-06-22T08:56:49;27.60;99.90
10433;DHT22;5263;48.680;9.004;2023-06-22T08:59:14;28.10;99.90
10433;DHT22;5263;48.680;9.004;2023-06-22T09:01:40;28.10;99.90
10433;DHT22;5263;48.680;9.004;2023-06-22T09:04:05;27.80;99.90
10433;DHT22;5263;48.680;9.004;2023-06-22T09:06:32;27.40;99.90
10433;DHT22;5263;48.680;9.004;2023-06-22T09:08:58;27.60;99.90
10433;DHT22;5263;48.680;9.004;2023-06-22T09:11:26;27.60;99.90
10433;DHT22;5263;48.680;9.004;2023-06-22T09:13:52;27.90;99.90
10433;DHT22;5263;48.680;9.004;2023-06-22T09:16:19;27.70;99.90
10433;DHT22;5263;48.680;9.004;2023-06-22T09:18:48;27.60;99.90
10433;DHT22;5263;48.680;9.004;2023-06-22T09:21:13;27.60;99.90
10433;DHT22;5263;48.680;9.004;2023-06-22T09:23:39;27.60;99.90
10433;DHT22;5263;48.680;9.004;2023-06-22T09:26:05;27.80;99.90
10433;DHT22;5263;48.680;9.004;2023-06-22T09:28:31;28.10;99.90
10433;DHT22;5263;48.680;9.004;2023-06-22T09:30:56;28.30;99.90
10433;DHT22;5263;48.680;9.004;2023-06-22T09:33:25;28.30;99.90
10433;DHT22;5263;48.680;9.004;2023-06-22T09:35:51;28.40;99.90
10433;DHT22;5263;48.680;9.004;2023-06-22T09:38:17;28.60;99.90
10433;DHT22;5263;48.680;9.004;2023-06-22T09:40:42;28.60;99.90
10433;DHT22;5263;48.680;9.004;2023-06-22T09:43:08;28.70;99.90
10433;DHT22;5263;48.680;9.004;2023-06-22T09:45:34;28.80;99.90
10433;DHT22;5263;48.680;9.004;2023-06-22T09:47:59;29.00;99.90
10433;DHT22;5263;48.680;9.004;2023-06-22T09:50:25;29.20;99.90
10433;DHT22;5263;48.680;9.004;2023-06-22T09:52:51;29.60;99.90
10433;DHT22;5263;48.680;9.004;2023-06-22T09:55:20;30.10;99.90
10433;DHT22;5263;48.680;9.004;2023-06-22T09:57:46;30.30;99.90
10433;DHT22;5263;48.680;9.004;2023-06-22T10:00:12;30.50;99.90
10433;DHT22;5263;48.680;9.004;2023-06-22T10:02:39;29.90;99.90
10433;DHT22;5263;48.680;9.004;2023-06-22T10:05:05;30.20;99.90
10433;DHT22;5263;48.680;9.004;2023-06-22T10:07:33;30.20;99.90
10433;DHT22;5263;48.680;9.004;2023-06-22T10:09:58;30.30;99.90
10433;DHT22;5263;48.680;9.004;2023-06-22T10:12:25;30.40;99.90
10433;DHT22;5263;48.680;9.004;2023-06-22T10:14:50;30.50;99.90
10433;DHT22;5263;48.680;9.004;2023-06-22T10:17:16;30.60;99.90
10433;DHT22;5263;48.680;9.004;2023-06-22T10:19:42;30.50;99.90
10433;DHT22;5263;48.680;9.004;2023-06-22T10:22:07;30.70;99.90
10433;DHT22;5263;48.680;9.004;2023-06-22T10:24:33;30.70;99.90
10433;DHT22;5263;48.680;9.004;2023-06-22T10:26:59;31.00;99.90
10433;DHT22;5263;48.680;9.004;2023-06-22T10:29:24;31.30;99.90
10433;DHT22;5263;48.680;9.004;2023-06-22T10:31:50;31.60;99.90
10433;DHT22;5263;48.680;9.004;2023-06-22T10:34:15;31.50;99.90
10433;DHT22;5263;48.680;9.004;2023-06-22T10:36:41;32.20;99.90
10433;DHT22;5263;48.680;9.004;2023-06-22T10:39:06;32.00;99.90
10433;DHT22;5263;48.680;9.004;2023-06-22T10:41:32;31.90;99.90
10433;DHT22;5263;48.680;9.004;2023-06-22T10:44:04;32.30;99.90
10433;DHT22;5263;48.680;9.004;2023-06-22T10:46:29;31.90;99.90
10433;DHT22;5263;48.680;9.004;2023-06-22T10:48:55;32.20;99.90
10433;DHT22;5263;48.680;9.004;2023-06-22T10:51:22;32.10;99.90
10433;DHT22;5263;48.680;9.004;2023-06-22T10:53:48;32.40;99.90
10433;DHT22;5263;48.680;9.004;2023-06-22T10:56:13;32.70;99.90
10433;DHT22;5263;48.680;9.004;2023-06-22T10:58:39;33.00;99.90
10433;DHT22;5263;48.680;9.004;2023-06-22T11:01:04;31.70;99.90
10433;DHT22;5263;48.680;9.004;2023-06-22T11:03:30;31.70;99.90
10433;DHT22;5263;48.680;9.004;2023-06-22T11:05:56;31.80;99.90
10433;DHT22;5263;48.680;9.004;2023-06-22T11:08:21;32.00;99.90
10433;DHT22;5263;48.680;9.004;2023-06-22T11:10:47;32.20;99.90
10433;DHT22;5263;48.680;9.004;2023-06-22T11:13:12;31.30;99.90
10433;DHT22;5263;48.680;9.004;2023-06-22T11:15:39;31.40;99.90
10433;DHT22;5263;48.680;9.004;2023-06-22T11:18:05;31.00;99.90
10433;DHT22;5263;48.680;9.004;2023-06-22T11:20:33;30.90;99.90
10433;DHT22;5263;48.680;9.004;2023-06-22T11:23:00;30.70;99.90
10433;DHT22;5263;48.680;9.004;2023-06-22T11:25:25;31.00;99.90
10433;DHT22;5263;48.680;9.004;2023-06-22T11:27:51;30.80;99.90
10433;DHT22;5263;48.680;9.004;2023-06-22T11:30:19;32.00;99.90
10433;DHT22;5263;48.680;9.004;2023-06-22T11:32:45;32.40;99.70
10433;DHT22;5263;48.680;9.004;2023-06-22T11:35:10;32.10;99.70
10433;DHT22;5263;48.680;9.004;2023-06-22T11:37:36;32.30;99.90
10433;DHT22;5263;48.680;9.004;2023-06-22T11:40:02;32.70;98.80
10433;DHT22;5263;48.680;9.004;2023-06-22T11:42:30;32.60;98.20
10433;DHT22;5263;48.680;9.004;2023-06-22T11:44:56;32.50;98.40
10433;DHT22;5263;48.680;9.004;2023-06-22T11:47:21;31.40;99.50
10433;DHT22;5263;48.680;9.004;2023-06-22T11:49:47;31.10;99.90
10433;DHT22;5263;48.680;9.004;2023-06-22T11:52:12;31.40;99.90
10433;DHT22;5263;48.680;9.004;2023-06-22T11:54:38;30.90;99.90
10433;DHT22;5263;48.680;9.004;2023-06-22T11:57:04;31.10;99.90
10433;DHT22;5263;48.680;9.004;2023-06-22T11:59:30;30.90;99.90
10433;DHT22;5263;48.680;9.004;2023-06-22T12:01:55;31.00;99.90
10433;DHT22;5263;48.680;9.004;2023-06-22T12:04:21;30.70;99.90
10433;DHT22;5263;48.680;9.004;2023-06-22T12:06:46;30.50;99.90
10433;DHT22;5263;48.680;9.004;2023-06-22T12:09:12;30.60;99.90
10433;DHT22;5263;48.680;9.004;2023-06-22T12:11:39;30.50;99.90
10433;DHT22;5263;48.680;9.004;2023-06-22T12:14:04;30.50;99.90
10433;DHT22;5263;48.680;9.004;2023-06-22T12:16:30;30.90;99.90
10433;DHT22;5263;48.680;9.004;2023-06-22T12:18:56;31.40;99.90
10433;DHT22;5263;48.680;9.004;2023-06-22T12:21:21;31.60;99.90
10433;DHT22;5263;48.680;9.004;2023-06-22T12:23:48;31.00;99.90
10433;DHT22;5263;48.680;9.004;2023-06-22T12:26:14;30.10;99.90
10433;DHT22;5263;48.680;9.004;2023-06-22T12:28:39;29.70;99.90
10433;DHT22;5263;48.680;9.004;2023-06-22T12:31:05;29.80;99.90
10433;DHT22;5263;48.680;9.004;2023-06-22T12:33:31;29.80;99.90
10433;DHT22;5263;48.680;9.004;2023-06-22T12:35:57;30.00;99.90
10433;DHT22;5263;48.680;9.004;2023-06-22T12:38:22;30.40;99.90
10433;DHT22;5263;48.680;9.004;2023-06-22T12:40:50;30.60;99.90
10433;DHT22;5263;48.680;9.004;2023-06-22T12:43:16;30.20;99.90
10433;DHT22;5263;48.680;9.004;2023-06-22T12:45:42;30.10;99.90
10433;DHT22;5263;48.680;9.004;2023-06-22T12:48:07;30.10;99.90
10433;DHT22;5263;48.680;9.004;2023-06-22T12:50:34;29.90;99.90
10433;DHT22;5263;48.680;9.004;2023-06-22T12:52:59;29.50;99.90
10433;DHT22;5263;48.680;9.004;2023-06-22T12:55:27;29.20;99.90
10433;DHT22;5263;48.680;9.004;2023-06-22T12:57:53;28.80;99.90
10433;DHT22;5263;48.680;9.004;2023-06-22T13:00:19;28.70;99.90
10433;DHT22;5263;48.680;9.004;2023-06-22T13:02:45;28.60;99.90
10433;DHT22;5263;48.680;9.004;2023-06-22T13:05:10;28.50;99.90
10433;DHT22;5263;48.680;9.004;2023-06-22T13:07:36;28.50;99.90
10433;DHT22;5263;48.680;9.004;2023-06-22T13:10:02;28.60;99.90
10433;DHT22;5263;48.680;9.004;2023-06-22T13:12:28;29.00;99.90
10433;DHT22;5263;48.680;9.004;2023-06-22T13:14:54;29.30;99.90
10433;DHT22;5263;48.680;9.004;2023-06-22T13:17:20;29.60;99.90
10433;DHT22;5263;48.680;9.004;2023-06-22T13:19:46;30.00;99.90
10433;DHT22;5263;48.680;9.004;2023-06-22T13:22:34;30.40;99.90
10433;DHT22;5263;48.680;9.004;2023-06-22T13:25:05;30.60;99.90
10433;DHT22;5263;48.680;9.004;2023-06-22T13:27:31;30.70;99.90
10433;DHT22;5263;48.680;9.004;2023-06-22T13:29:57;30.50;99.90
10433;DHT22;5263;48.680;9.004;2023-06-22T13:32:23;30.60;99.90
10433;DHT22;5263;48.680;9.004;2023-06-22T13:34:48;30.70;99.90
10433;DHT22;5263;48.680;9.004;2023-06-22T13:37:14;30.80;99.90
10433;DHT22;5263;48.680;9.004;2023-06-22T13:39:40;30.80;99.90
10433;DHT22;5263;48.680;9.004;2023-06-22T13:42:06;30.70;99.90
10433;DHT22;5263;48.680;9.004;2023-06-22T13:44:31;30.60;99.90
10433;DHT22;5263;48.680;9.004;2023-06-22T13:46:57;30.50;99.90
10433;DHT22;5263;48.680;9.004;2023-06-22T13:49:23;30.30;99.90
10433;DHT22;5263;48.680;9.004;2023-06-22T13:51:48;30.30;99.90
10433;DHT22;5263;48.680;9.004;2023-06-22T13:54:14;30.30;99.90
10433;DHT22;5263;48.680;9.004;2023-06-22T13:56:40;30.60;99.90
10433;DHT22;5263;48.680;9.004;2023-06-22T13:59:06;31.20;99.90
10433;DHT22;5263;48.680;9.004;2023-06-22T14:01:35;31.70;99.90
10433;DHT22;5263;48.680;9.004;2023-06-22T14:04:00;32.60;99.90
10433;DHT22;5263;48.680;9.004;2023-06-22T14:06:27;33.30;97.10
10433;DHT22;5263;48.680;9.004;2023-06-22T14:08:53;34.40;96.50
10433;DHT22;5263;48.680;9.004;2023-06-22T14:11:19;35.70;94.20
10433;DHT22;5263;48.680;9.004;2023-06-22T14:13:44;37.00;91.00
10433;DHT22;5263;48.680;9.004;2023-06-22T14:16:10;36.50;88.80
10433;DHT22;5263;48.680;9.004;2023-06-22T14:18:36;35.50;89.60
10433;DHT22;5263;48.680;9.004;2023-06-22T14:21:02;34.00;90.60
10433;DHT22;5263;48.680;9.004;2023-06-22T14:23:27;33.50;87.90
10433;DHT22;5263;48.680;9.004;2023-06-22T14:25:53;33.00;87.00
10433;DHT22;5263;48.680;9.004;2023-06-22T14:28:20;33.00;85.30
10433;DHT22;5263;48.680;9.004;2023-06-22T14:30:45;32.70;81.00
10433;DHT22;5263;48.680;9.004;2023-06-22T14:33:12;32.60;80.30
10433;DHT22;5263;48.680;9.004;2023-06-22T14:35:38;33.30;75.40
10433;DHT22;5263;48.680;9.004;2023-06-22T14:38:03;34.60;71.00
10433;DHT22;5263;48.680;9.004;2023-06-22T14:40:29;35.80;64.40
10433;DHT22;5263;48.680;9.004;2023-06-22T14:42:54;34.90;61.70
10433;DHT22;5263;48.680;9.004;2023-06-22T14:45:22;35.10;61.90
10433;DHT22;5263;48.680;9.004;2023-06-22T14:47:48;35.20;59.00
10433;DHT22;5263;48.680;9.004;2023-06-22T14:50:14;34.80;61.70
10433;DHT22;5263;48.680;9.004;2023-06-22T14:52:39;34.50;61.90
10433;DHT22;5263;48.680;9.004;2023-06-22T14:55:06;33.90;60.80
10433;DHT22;5263;48.680;9.004;2023-06-22T14:57:31;33.70;62.00
10433;DHT22;5263;48.680;9.004;2023-06-22T14:59:57;33.80;61.50
10433;DHT22;5263;48.680;9.004;2023-06-22T15:02:23;33.00;62.10
10433;DHT22;5263;48.680;9.004;2023-06-22T15:04:48;32.30;64.10
10433;DHT22;5263;48.680;9.004;2023-06-22T15:07:14;32.30;63.30
10433;DHT22;5263;48.680;9.004;2023-06-22T15:09:40;32.00;63.10
10433;DHT22;5263;48.680;9.004;2023-06-22T15:12:08;32.20;65.20
10433;DHT22;5263;48.680;9.004;2023-06-22T15:14:39;32.70;63.90
10433;DHT22;5263;48.680;9.004;2023-06-22T15:17:05;32.40;62.70
10433;DHT22;5263;48.680;9.004;2023-06-22T15:19:31;32.10;63.90
10433;DHT22;5263;48.680;9.004;2023-06-22T15:21:56;32.20;63.70
10433;DHT22;5263;48.680;9.004;2023-06-22T15:24:22;32.20;63.20
10433;DHT22;5263;48.680;9.004;2023-06-22T15:26:47;32.10;63.80
10433;DHT22;5263;48.680;9.004;2023-06-22T15:29:13;31.90;64.50
10433;DHT22;5263;48.680;9.004;2023-06-22T15:31:39;31.80;64.40
10433;DHT22;5263;48.680;9.004;2023-06-22T15:34:04;31.40;65.20
10433;DHT22;5263;48.680;9.004;2023-06-22T15:36:30;31.10;66.40
10433;DHT22;5263;48.680;9.004;2023-06-22T15:38:56;31.00;67.00
10433;DHT22;5263;48.680;9.004;2023-06-22T15:41:22;30.90;69.20
10433;DHT22;5263;48.680;9.004;2023-06-22T15:43:48;30.80;68.70
10433;DHT22;5263;48.680;9.004;2023-06-22T15:46:14;30.50;70.20
10433;DHT22;5263;48.680;9.004;2023-06-22T15:48:43;30.40;71.00